Time;durP1;ratioP1;P1;durP2;ratioP2;P2;SDS_P1;SDS_P2;PMS_P1;PMS_P2;Temp;Humidity;BMP_temperature;BMP_pressure;BME280_temperature;BME280_humidity;BME280_pressure;Samples;Min_cycle;Max_cycle;Signal;HPM_P1;HPM_P2
2021/11/13 00:01:48;;;;;;;25.00;14.60;;;4.60;99.90;;;;;;5049003;28;20451;-54
2021/11/13 00:04:14;;;;;;;24.33;13.57;;;4.50;99.90;;;;;;5046227;28;20484;-53
2021/11/13 00:06:40;;;;;;;19.50;12.90;;;4.50;99.90;;;;;;5044390;28;20214;-54
2021/11/13 00:09:06;;;;;;;22.70;12.70;;;4.50;99.90;;;;;;5049027;28;20288;-54
2021/11/13 00:11:32;;;;;;;21.83;13.50;;;4.50;99.90;;;;;;5045936;28;20188;-51
2021/11/13 00:14:02;;;;;;;20.90;12.87;;;4.50;99.90;;;;;;5048600;28;20475;-55
2021/11/13 00:16:31;;;;;;;21.70;11.50;;;4.50;99.90;;;;;;5043230;28;20437;-55
2021/11/13 00:18:56;;;;;;;20.23;12.53;;;4.50;99.90;;;;;;5042236;28;20437;-55
2021/11/13 00:21:22;;;;;;;22.80;12.50;;;4.30;99.90;;;;;;5044231;28;20439;-54
2021/11/13 00:23:48;;;;;;;20.80;12.87;;;4.30;99.90;;;;;;5046161;28;20199;-55
2021/11/13 00:26:14;;;;;;;22.30;12.97;;;4.20;99.90;;;;;;5049920;28;20471;-53
2021/11/13 00:28:39;;;;;;;19.63;12.57;;;4.10;99.90;;;;;;5043745;28;20199;-52
2021/11/13 00:31:05;;;;;;;21.50;12.07;;;4.10;99.90;;;;;;5044867;28;20681;-55
2021/11/13 00:33:31;;;;;;;17.70;11.70;;;4.30;99.90;;;;;;5047605;28;20688;-54
2021/11/13 00:35:56;;;;;;;20.00;12.67;;;4.30;99.90;;;;;;5041016;28;20195;-54
2021/11/13 00:38:22;;;;;;;21.53;12.10;;;4.30;99.90;;;;;;5047276;28;20450;-55
2021/11/13 00:40:48;;;;;;;20.50;13.17;;;4.30;99.90;;;;;;5042565;28;20632;-50
2021/11/13 00:43:14;;;;;;;22.17;13.50;;;4.40;99.90;;;;;;5044159;28;20210;-52
2021/11/13 00:45:40;;;;;;;21.50;12.40;;;4.40;99.90;;;;;;5042620;28;20184;-56
2021/11/13 00:48:07;;;;;;;23.50;13.03;;;4.50;99.90;;;;;;5044538;28;20473;-53
2021/11/13 00:50:33;;;;;;;31.93;14.40;;;4.50;99.90;;;;;;5050588;28;20330;-54
2021/11/13 00:52:58;;;;;;;16.23;11.87;;;4.50;99.90;;;;;;5043977;28;20526;-52
2021/11/13 00:55:24;;;;;;;22.37;12.73;;;4.50;99.90;;;;;;5043715;28;20188;-54
2021/11/13 00:57:50;;;;;;;25.43;13.80;;;4.30;99.90;;;;;;5044509;28;20250;-55
2021/11/13 01:00:18;;;;;;;26.90;15.17;;;4.60;99.90;;;;;;5039143;28;20204;-54
2021/11/13 01:02:44;;;;;;;23.10;13.87;;;4.50;99.90;;;;;;5043211;28;20179;-52
2021/11/13 01:05:10;;;;;;;21.30;14.17;;;4.40;99.90;;;;;;5046727;28;20426;-55
2021/11/13 01:07:36;;;;;;;24.53;14.63;;;4.40;99.90;;;;;;5041420;28;20528;-53
2021/11/13 01:10:05;;;;;;;19.87;13.70;;;4.30;99.90;;;;;;5042874;28;20462;-53
2021/11/13 01:12:31;;;;;;;22.13;13.53;;;4.20;99.90;;;;;;5042106;28;20761;-54
2021/11/13 01:14:56;;;;;;;26.90;14.50;;;4.30;99.90;;;;;;5040514;28;20788;-54
2021/11/13 01:17:22;;;;;;;23.47;13.47;;;4.10;99.90;;;;;;5050003;28;20517;-54
2021/11/13 01:19:48;;;;;;;28.73;15.70;;;4.30;99.90;;;;;;5046199;28;20282;-54
2021/11/13 01:22:15;;;;;;;23.00;13.67;;;4.30;99.90;;;;;;5047869;28;20803;-55
2021/11/13 01:24:41;;;;;;;31.20;13.10;;;4.50;99.90;;;;;;5047361;28;20947;-52
2021/11/13 01:27:07;;;;;;;22.77;13.33;;;4.60;99.90;;;;;;5044276;28;21256;-50
2021/11/13 01:29:33;;;;;;;23.67;13.50;;;4.70;99.90;;;;;;5046830;28;20476;-54
2021/11/13 01:31:59;;;;;;;22.77;12.93;;;5.00;99.90;;;;;;5044417;28;20437;-52
2021/11/13 01:34:24;;;;;;;26.80;13.13;;;4.90;99.90;;;;;;5042695;28;20183;-54
2021/11/13 01:36:50;;;;;;;22.27;13.47;;;4.80;99.90;;;;;;5051226;28;20218;-50
2021/11/13 01:39:16;;;;;;;28.00;14.40;;;4.80;99.90;;;;;;5046943;28;20212;-53
2021/11/13 01:41:42;;;;;;;20.13;12.20;;;4.90;99.90;;;;;;5048239;28;20184;-54
2021/11/13 01:44:09;;;;;;;28.80;12.60;;;4.80;99.90;;;;;;5049439;28;20456;-54
2021/11/13 01:46:35;;;;;;;26.40;12.53;;;4.70;99.90;;;;;;5045508;28;20206;-52
2021/11/13 01:49:01;;;;;;;31.40;14.43;;;4.70;99.90;;;;;;5052557;28;20496;-53
2021/11/13 01:51:29;;;;;;;23.30;12.60;;;4.60;99.90;;;;;;5046091;28;20426;-54
2021/11/13 01:53:59;;;;;;;22.53;12.20;;;4.50;99.90;;;;;;5047317;28;20186;-51
2021/11/13 01:56:25;;;;;;;24.23;12.37;;;4.30;99.90;;;;;;5050522;28;20430;-51
2021/11/13 01:58:54;;;;;;;21.70;11.70;;;4.30;99.90;;;;;;5046285;28;20846;-53
2021/11/13 02:01:21;;;;;;;20.20;12.57;;;4.30;99.90;;;;;;5046145;28;20842;-54
2021/11/13 02:03:49;;;;;;;22.10;12.33;;;4.40;99.90;;;;;;5051316;28;20940;-54
2021/11/13 02:06:15;;;;;;;18.80;12.30;;;4.30;99.90;;;;;;5042973;28;20881;-54
2021/11/13 02:08:42;;;;;;;22.50;12.47;;;4.30;99.90;;;;;;5048808;28;20458;-52
2021/11/13 02:11:13;;;;;;;26.07;13.53;;;4.30;99.90;;;;;;5045156;28;20535;-54
2021/11/13 02:13:40;;;;;;;26.17;11.13;;;4.30;99.90;;;;;;5046809;28;20591;-56
2021/11/13 02:16:08;;;;;;;27.03;13.73;;;4.40;99.90;;;;;;5050068;28;20520;-54
2021/11/13 02:18:37;;;;;;;26.13;13.20;;;4.30;99.90;;;;;;5042753;28;20432;-54
2021/11/13 02:21:03;;;;;;;20.83;12.30;;;4.30;99.90;;;;;;5049411;28;20442;-52
2021/11/13 02:23:29;;;;;;;20.27;12.33;;;4.30;99.90;;;;;;5047525;28;20430;-55
2021/11/13 02:25:55;;;;;;;18.70;11.87;;;4.30;99.90;;;;;;5043409;28;20445;-54
2021/11/13 02:28:24;;;;;;;18.80;12.40;;;4.30;99.90;;;;;;5045863;28;20216;-55
2021/11/13 02:30:52;;;;;;;22.57;12.80;;;4.20;99.90;;;;;;5044624;28;20220;-55
2021/11/13 02:33:18;;;;;;;19.00;12.53;;;4.20;99.90;;;;;;5046717;28;20505;-55
2021/11/13 02:35:44;;;;;;;23.07;12.10;;;4.20;99.90;;;;;;5050159;28;20414;-54
2021/11/13 02:38:19;;;;;;;18.67;10.97;;;4.20;99.90;;;;;;5043502;28;20805;-54
2021/11/13 02:40:51;;;;;;;17.57;11.63;;;4.30;99.90;;;;;;5044734;28;20829;-54
2021/11/13 02:43:17;;;;;;;21.77;11.50;;;4.30;99.90;;;;;;5044073;28;20444;-52
2021/11/13 02:45:44;;;;;;;22.07;12.43;;;4.30;99.90;;;;;;5045014;28;20426;-51
2021/11/13 02:48:11;;;;;;;20.03;12.60;;;4.20;99.90;;;;;;5048772;28;20458;-52
2021/11/13 02:50:38;;;;;;;18.67;10.77;;;4.30;99.90;;;;;;5042986;28;20963;-52
2021/11/13 02:53:14;;;;;;;18.43;10.53;;;4.50;99.90;;;;;;5045146;28;20547;-55
2021/11/13 02:55:40;;;;;;;20.43;12.90;;;4.50;99.90;;;;;;5051734;28;20807;-55
2021/11/13 02:58:07;;;;;;;18.13;11.57;;;4.50;99.90;;;;;;5044047;28;20446;-54
2021/11/13 03:00:33;;;;;;;21.90;11.60;;;4.50;99.90;;;;;;5045941;28;21068;-56
2021/11/13 03:02:58;;;;;;;23.33;12.43;;;4.50;99.90;;;;;;5045215;28;20988;-56
2021/11/13 03:05:33;;;;;;;19.43;11.70;;;4.50;99.90;;;;;;5044355;28;20437;-54
2021/11/13 03:08:02;;;;;;;20.10;11.27;;;4.40;99.90;;;;;;5046656;28;20203;-52
2021/11/13 03:10:31;;;;;;;15.97;11.07;;;4.40;99.90;;;;;;5045449;28;20458;-54
2021/11/13 03:12:57;;;;;;;19.03;11.20;;;4.50;99.90;;;;;;5042061;28;20435;-53
2021/11/13 03:15:23;;;;;;;17.67;11.00;;;4.50;99.90;;;;;;5046702;28;20449;-52
2021/11/13 03:17:51;;;;;;;18.40;11.13;;;4.40;99.90;;;;;;5040649;28;20244;-54
2021/11/13 03:20:23;;;;;;;18.07;10.30;;;4.30;99.90;;;;;;5045904;28;20817;-54
2021/11/13 03:22:49;;;;;;;19.80;11.17;;;4.40;99.90;;;;;;5044823;28;20430;-51
2021/11/13 03:25:18;;;;;;;18.57;10.90;;;4.30;99.90;;;;;;5043908;28;20511;-55
2021/11/13 03:27:46;;;;;;;15.83;9.77;;;4.30;99.90;;;;;;5049692;28;20422;-52
2021/11/13 03:30:14;;;;;;;15.60;11.17;;;4.40;99.90;;;;;;5048641;28;20817;-54
2021/11/13 03:32:40;;;;;;;15.20;9.67;;;4.40;99.90;;;;;;5043374;28;20536;-55
2021/11/13 03:35:08;;;;;;;17.00;10.77;;;4.30;99.90;;;;;;5046554;28;20690;-53
2021/11/13 03:37:34;;;;;;;17.20;10.80;;;4.20;99.90;;;;;;5044254;28;20184;-54
2021/11/13 03:39:59;;;;;;;17.23;10.97;;;4.20;99.90;;;;;;5043354;28;20503;-54
2021/11/13 03:42:29;;;;;;;15.23;10.30;;;4.30;99.90;;;;;;5047072;28;20528;-53
2021/11/13 03:44:56;;;;;;;21.63;10.60;;;4.30;99.90;;;;;;5043274;28;20565;-50
2021/11/13 03:47:22;;;;;;;19.10;11.33;;;4.40;99.90;;;;;;5039474;28;20968;-55
2021/11/13 03:49:47;;;;;;;19.37;11.90;;;4.30;99.90;;;;;;5043479;28;20815;-54
2021/11/13 03:52:13;;;;;;;21.23;12.10;;;4.30;99.90;;;;;;5047910;28;20183;-51
2021/11/13 03:54:39;;;;;;;17.33;11.37;;;4.40;99.90;;;;;;5045728;28;20215;-54
2021/11/13 03:57:05;;;;;;;19.40;11.70;;;4.50;99.90;;;;;;5044980;28;20199;-56
2021/11/13 03:59:31;;;;;;;18.10;12.20;;;4.40;99.90;;;;;;5044402;28;20211;-55
2021/11/13 04:01:57;;;;;;;20.60;12.80;;;4.40;99.90;;;;;;5042667;28;20438;-51
2021/11/13 04:04:23;;;;;;;19.63;11.90;;;4.50;99.90;;;;;;5044613;28;20450;-52
2021/11/13 04:06:49;;;;;;;19.00;11.87;;;4.30;99.90;;;;;;5046027;28;20425;-54
2021/11/13 04:09:14;;;;;;;18.63;12.27;;;4.20;99.90;;;;;;5045183;28;20220;-52
2021/11/13 04:11:40;;;;;;;21.00;12.07;;;4.40;99.90;;;;;;5047429;28;20298;-54
2021/11/13 04:14:06;;;;;;;21.57;12.90;;;4.40;99.90;;;;;;5045509;28;20693;-52
2021/11/13 04:16:31;;;;;;;20.80;11.63;;;4.40;99.90;;;;;;5042653;28;20214;-52
2021/11/13 04:18:57;;;;;;;20.30;11.50;;;4.30;99.90;;;;;;5046110;28;20195;-50
2021/11/13 04:21:23;;;;;;;17.50;11.40;;;4.30;99.90;;;;;;5039018;28;20339;-53
2021/11/13 04:23:48;;;;;;;18.63;11.50;;;4.20;99.90;;;;;;5043968;28;20195;-53
2021/11/13 04:26:14;;;;;;;20.83;11.83;;;4.20;99.90;;;;;;5045644;28;20197;-52
2021/11/13 04:28:40;;;;;;;19.07;11.37;;;4.30;99.90;;;;;;5043473;28;20211;-49
2021/11/13 04:31:05;;;;;;;20.37;12.93;;;4.30;99.90;;;;;;5045233;28;20242;-53
2021/11/13 04:33:33;;;;;;;24.73;12.87;;;4.40;99.90;;;;;;5042055;28;20609;-52
2021/11/13 04:36:07;;;;;;;21.60;12.20;;;4.30;99.90;;;;;;5044704;28;20184;-54
2021/11/13 04:38:34;;;;;;;19.70;12.40;;;4.20;99.90;;;;;;5041952;28;20494;-51
2021/11/13 04:41:03;;;;;;;19.50;12.33;;;4.30;99.90;;;;;;5043415;28;20427;-53
2021/11/13 04:43:28;;;;;;;19.13;12.33;;;4.60;99.90;;;;;;5037580;28;20434;-49
2021/11/13 04:45:54;;;;;;;19.57;12.30;;;4.70;99.90;;;;;;5044463;28;20472;-52
2021/11/13 04:48:20;;;;;;;22.03;12.30;;;4.60;99.90;;;;;;5044115;28;20700;-50
2021/11/13 04:50:46;;;;;;;20.90;12.17;;;4.50;99.90;;;;;;5045410;28;20212;-52
2021/11/13 04:53:12;;;;;;;23.70;13.90;;;4.30;99.90;;;;;;5041121;28;20448;-49
2021/11/13 04:55:38;;;;;;;18.20;10.77;;;4.50;99.90;;;;;;5045033;28;20415;-53
2021/11/13 04:58:04;;;;;;;19.83;12.20;;;4.60;99.90;;;;;;5046435;28;20427;-52
2021/11/13 05:00:31;;;;;;;22.90;11.27;;;4.50;99.90;;;;;;5042091;28;20218;-51
2021/11/13 05:02:58;;;;;;;20.00;11.77;;;4.50;99.90;;;;;;5044478;28;20466;-52
2021/11/13 05:05:23;;;;;;;24.63;13.80;;;4.50;99.90;;;;;;5042348;28;20513;-51
2021/11/13 05:07:50;;;;;;;20.17;12.17;;;4.50;99.90;;;;;;5043775;28;20435;-51
2021/11/13 05:10:16;;;;;;;19.80;13.63;;;4.30;99.90;;;;;;5045888;28;20244;-54
2021/11/13 05:12:42;;;;;;;25.23;14.27;;;4.60;99.90;;;;;;5040424;28;20825;-49
2021/11/13 05:15:09;;;;;;;23.27;12.70;;;4.50;99.90;;;;;;5046636;28;20426;-53
2021/11/13 05:17:36;;;;;;;18.80;12.30;;;4.70;99.90;;;;;;5041260;28;20513;-51
2021/11/13 05:20:07;;;;;;;19.30;13.27;;;4.70;99.90;;;;;;5041145;28;20461;-50
2021/11/13 05:22:33;;;;;;;21.83;12.17;;;4.60;99.90;;;;;;5041423;28;20431;-49
2021/11/13 05:24:58;;;;;;;22.20;13.23;;;4.70;99.90;;;;;;5045887;28;20909;-54
2021/11/13 05:27:24;;;;;;;21.90;13.10;;;4.60;99.90;;;;;;5043439;28;20598;-54
2021/11/13 05:29:49;;;;;;;22.00;12.30;;;4.60;99.90;;;;;;5045971;28;20215;-49
2021/11/13 05:32:16;;;;;;;20.57;12.23;;;4.70;99.90;;;;;;5045060;28;20187;-53
2021/11/13 05:34:42;;;;;;;21.67;11.90;;;4.70;99.90;;;;;;5044627;28;20188;-51
2021/11/13 05:37:07;;;;;;;18.50;12.27;;;4.50;99.90;;;;;;5046547;28;20429;-52
2021/11/13 05:39:36;;;;;;;22.00;13.47;;;4.60;99.90;;;;;;5043093;28;20695;-52
2021/11/13 05:42:02;;;;;;;23.00;13.00;;;4.70;99.90;;;;;;5042462;28;20185;-52
2021/11/13 05:44:28;;;;;;;22.50;13.30;;;4.70;99.90;;;;;;5040537;28;20431;-53
2021/11/13 05:46:54;;;;;;;26.93;12.80;;;4.60;99.90;;;;;;5042250;28;20487;-53
2021/11/13 05:49:20;;;;;;;17.77;12.10;;;4.50;99.90;;;;;;5041442;28;20204;-52
2021/11/13 05:51:46;;;;;;;23.17;13.13;;;4.50;99.90;;;;;;5047515;28;20426;-50
2021/11/13 05:54:12;;;;;;;21.77;12.73;;;4.50;99.90;;;;;;5042888;28;20852;-51
2021/11/13 05:56:37;;;;;;;22.47;12.03;;;4.50;99.90;;;;;;5044018;28;20210;-50
2021/11/13 05:59:03;;;;;;;22.70;13.40;;;4.50;99.90;;;;;;5042932;28;20544;-51
2021/11/13 06:01:29;;;;;;;20.93;12.00;;;4.50;99.90;;;;;;5046513;28;20180;-52
2021/11/13 06:03:55;;;;;;;21.80;13.83;;;4.60;99.90;;;;;;5045597;28;20589;-51
2021/11/13 06:06:20;;;;;;;22.07;14.03;;;4.80;99.90;;;;;;5046851;28;20775;-53
2021/11/13 06:08:46;;;;;;;15.40;11.77;;;4.80;99.90;;;;;;5046125;28;20200;-54
2021/11/13 06:11:12;;;;;;;17.50;11.83;;;4.70;99.90;;;;;;5047646;28;20199;-52
2021/11/13 06:13:37;;;;;;;21.13;13.00;;;4.70;99.90;;;;;;5046136;28;20246;-51
2021/11/13 06:16:03;;;;;;;27.70;13.80;;;4.90;99.90;;;;;;5051401;28;20191;-54
2021/11/13 06:18:33;;;;;;;19.23;11.87;;;4.90;99.90;;;;;;5045130;28;20226;-55
2021/11/13 06:20:58;;;;;;;19.50;12.23;;;4.80;99.90;;;;;;5046254;28;20489;-54
2021/11/13 06:23:24;;;;;;;17.40;13.40;;;4.90;99.90;;;;;;5052053;28;20953;-55
2021/11/13 06:25:50;;;;;;;19.90;12.67;;;5.00;99.90;;;;;;5048548;28;20215;-54
2021/11/13 06:28:15;;;;;;;21.70;13.23;;;4.90;99.90;;;;;;5041353;28;20715;-55
2021/11/13 06:30:41;;;;;;;20.80;13.57;;;5.00;99.90;;;;;;5049804;28;20295;-53
2021/11/13 06:33:06;;;;;;;21.50;13.50;;;5.00;99.90;;;;;;5044524;28;20237;-55
2021/11/13 06:35:32;;;;;;;22.00;14.20;;;4.80;99.90;;;;;;5047556;28;20444;-52
2021/11/13 06:37:58;;;;;;;22.37;13.13;;;4.90;99.90;;;;;;5047877;28;20187;-56
2021/11/13 06:40:23;;;;;;;26.30;14.50;;;5.00;99.90;;;;;;5049455;28;20230;-56
2021/11/13 06:42:49;;;;;;;22.50;14.27;;;4.90;99.90;;;;;;5042279;28;20202;-56
2021/11/13 06:45:15;;;;;;;23.70;14.83;;;5.00;99.90;;;;;;5045040;28;20184;-54
2021/11/13 06:47:41;;;;;;;22.83;15.30;;;5.10;99.90;;;;;;5049587;28;20174;-56
2021/11/13 06:50:09;;;;;;;17.20;11.47;;;5.10;99.90;;;;;;5046638;28;20470;-53
2021/11/13 06:52:35;;;;;;;25.27;14.90;;;5.10;99.90;;;;;;5042220;28;20743;-54
2021/11/13 06:55:01;;;;;;;20.77;13.47;;;5.20;99.90;;;;;;5046011;28;20517;-54
2021/11/13 06:57:26;;;;;;;20.50;13.50;;;5.30;99.90;;;;;;5045295;28;20180;-52
2021/11/13 06:59:52;;;;;;;20.07;12.97;;;5.00;99.90;;;;;;5045586;28;20203;-53
2021/11/13 07:02:17;;;;;;;23.53;13.77;;;5.10;99.90;;;;;;5053105;28;20720;-50
2021/11/13 07:04:43;;;;;;;21.50;13.80;;;5.00;99.90;;;;;;5043540;28;20261;-54
2021/11/13 07:07:09;;;;;;;21.70;13.13;;;5.10;99.90;;;;;;5046707;28;20279;-53
2021/11/13 07:09:35;;;;;;;23.20;15.30;;;5.20;99.90;;;;;;5044709;28;20504;-53
2021/11/13 07:12:01;;;;;;;22.43;13.57;;;5.20;99.90;;;;;;5046085;28;20919;-55
2021/11/13 07:14:27;;;;;;;23.07;13.37;;;5.20;99.90;;;;;;5050080;28;20260;-52
2021/11/13 07:16:53;;;;;;;26.20;13.13;;;5.30;99.90;;;;;;5042358;28;20214;-56
2021/11/13 07:19:18;;;;;;;23.90;14.70;;;5.30;99.90;;;;;;5050825;28;20438;-57
2021/11/13 07:21:44;;;;;;;19.73;12.77;;;5.10;99.90;;;;;;5046844;28;20199;-55
2021/11/13 07:24:10;;;;;;;25.03;13.97;;;5.10;99.90;;;;;;5043533;28;20239;-53
2021/11/13 07:26:36;;;;;;;19.20;14.07;;;5.20;99.90;;;;;;5046225;28;20184;-55
2021/11/13 07:29:04;;;;;;;21.20;13.93;;;5.30;99.90;;;;;;5045215;28;20480;-51
2021/11/13 07:31:31;;;;;;;19.57;13.27;;;5.40;99.90;;;;;;5038462;28;20431;-50
2021/11/13 07:33:57;;;;;;;16.03;12.50;;;5.60;99.90;;;;;;5050176;28;20413;-55
2021/11/13 07:36:23;;;;;;;18.17;12.80;;;5.50;99.90;;;;;;5042142;28;20419;-56
2021/11/13 07:38:49;;;;;;;19.17;13.50;;;5.60;99.90;;;;;;5044195;28;20230;-54
2021/11/13 07:41:17;;;;;;;25.10;14.53;;;5.70;99.90;;;;;;5046069;28;20466;-53
2021/11/13 07:43:42;;;;;;;23.10;14.93;;;5.90;99.90;;;;;;5045179;28;20449;-56
2021/11/13 07:46:08;;;;;;;18.40;12.40;;;5.80;99.90;;;;;;5048197;28;20430;-55
2021/11/13 07:48:34;;;;;;;19.27;13.73;;;5.80;99.90;;;;;;5043691;28;20298;-54
2021/11/13 07:51:00;;;;;;;19.77;13.17;;;5.80;99.90;;;;;;5039484;28;20217;-52
2021/11/13 07:53:26;;;;;;;17.80;12.43;;;5.60;99.90;;;;;;5046949;28;20445;-56
2021/11/13 07:55:52;;;;;;;21.87;13.80;;;5.70;99.90;;;;;;5043465;28;20429;-56
2021/11/13 07:58:18;;;;;;;20.67;13.70;;;5.70;99.90;;;;;;5040187;28;20536;-55
2021/11/13 08:00:45;;;;;;;18.73;12.50;;;5.80;99.90;;;;;;5043844;28;20221;-54
2021/11/13 08:03:11;;;;;;;18.20;12.83;;;5.80;99.90;;;;;;5045606;28;20218;-54
2021/11/13 08:05:37;;;;;;;21.50;14.53;;;6.10;99.90;;;;;;5043255;28;20470;-55
2021/11/13 08:08:03;;;;;;;19.00;13.20;;;6.30;99.90;;;;;;5041748;28;20185;-53
2021/11/13 08:10:35;;;;;;;19.30;13.87;;;6.20;99.90;;;;;;5042727;28;20747;-52
2021/11/13 08:13:02;;;;;;;19.00;12.70;;;6.40;99.90;;;;;;5045106;28;20505;-55
2021/11/13 08:15:28;;;;;;;21.60;13.57;;;6.50;99.90;;;;;;5040260;28;20438;-56
2021/11/13 08:17:53;;;;;;;21.77;13.57;;;6.50;99.90;;;;;;5041671;28;20495;-50
2021/11/13 08:20:19;;;;;;;22.00;14.00;;;6.40;99.90;;;;;;5042751;28;20207;-55
2021/11/13 08:22:44;;;;;;;21.20;13.07;;;6.20;99.90;;;;;;5047146;28;20267;-52
2021/11/13 08:25:13;;;;;;;18.53;13.13;;;6.20;99.90;;;;;;5047875;28;20258;-52
2021/11/13 08:27:39;;;;;;;19.83;13.00;;;6.40;99.90;;;;;;5048506;28;20188;-54
2021/11/13 08:30:06;;;;;;;18.77;13.33;;;6.30;99.90;;;;;;5041856;28;20484;-55
2021/11/13 08:32:32;;;;;;;23.37;15.37;;;6.10;99.90;;;;;;5045984;28;20476;-55
2021/11/13 08:34:58;;;;;;;23.27;14.30;;;6.20;99.90;;;;;;5041722;28;20847;-55
2021/11/13 08:37:23;;;;;;;28.80;14.50;;;6.20;99.90;;;;;;5046168;28;20564;-55
2021/11/13 08:39:49;;;;;;;21.37;14.40;;;6.40;99.90;;;;;;5044883;28;20299;-54
2021/11/13 08:42:14;;;;;;;20.33;13.53;;;6.60;99.90;;;;;;5042318;28;20641;-56
2021/11/13 08:44:45;;;;;;;24.17;14.70;;;6.60;99.90;;;;;;5042435;28;20183;-55
2021/11/13 08:47:12;;;;;;;21.20;15.17;;;6.50;99.90;;;;;;5040381;28;20202;-55
2021/11/13 08:49:39;;;;;;;21.60;15.10;;;6.60;99.90;;;;;;5040567;28;20845;-52
2021/11/13 08:52:05;;;;;;;29.57;15.20;;;6.60;99.90;;;;;;5044795;28;20509;-54
2021/11/13 08:54:31;;;;;;;24.20;14.80;;;6.60;99.90;;;;;;5040273;28;20792;-54
2021/11/13 08:56:56;;;;;;;22.57;15.00;;;6.60;99.90;;;;;;5046017;28;20428;-55
2021/11/13 08:59:22;;;;;;;22.97;15.83;;;6.70;99.90;;;;;;5046981;28;20961;-54
2021/11/13 09:01:50;;;;;;;27.33;18.03;;;6.50;99.90;;;;;;5040685;28;21542;-54
2021/11/13 09:04:16;;;;;;;29.50;17.97;;;6.40;99.90;;;;;;5044792;28;20188;-55
2021/11/13 09:06:42;;;;;;;26.10;17.40;;;6.30;99.90;;;;;;5042137;28;20470;-53
2021/11/13 09:09:08;;;;;;;24.60;16.30;;;6.30;99.90;;;;;;5036853;28;20478;-55
2021/11/13 09:11:39;;;;;;;28.63;18.33;;;6.50;99.90;;;;;;5044528;28;20681;-53
2021/11/13 09:14:08;;;;;;;29.17;17.97;;;6.60;99.90;;;;;;5045321;28;20615;-54
2021/11/13 09:16:34;;;;;;;24.83;16.73;;;6.80;99.90;;;;;;5038881;28;20544;-54
2021/11/13 09:19:00;;;;;;;25.77;16.90;;;6.90;99.90;;;;;;5041031;28;20510;-56
2021/11/13 09:21:27;;;;;;;26.83;17.50;;;6.90;99.90;;;;;;5042612;28;20749;-53
2021/11/13 09:23:53;;;;;;;23.50;16.77;;;6.90;99.90;;;;;;5043212;28;20567;-54
2021/11/13 09:26:19;;;;;;;26.07;16.80;;;6.90;99.90;;;;;;5043089;28;20420;-51
2021/11/13 09:28:45;;;;;;;25.50;16.50;;;6.90;99.90;;;;;;5040682;28;20468;-53
2021/11/13 09:31:12;;;;;;;24.60;17.93;;;6.80;99.90;;;;;;5047222;28;20206;-49
2021/11/13 09:33:37;;;;;;;28.97;16.67;;;6.90;99.90;;;;;;5038096;28;20442;-56
2021/11/13 09:36:03;;;;;;;30.50;20.10;;;6.90;99.90;;;;;;5042793;28;20538;-56
2021/11/13 09:38:34;;;;;;;32.30;19.80;;;6.80;99.90;;;;;;5048627;28;20180;-53
2021/11/13 09:41:02;;;;;;;27.60;19.20;;;7.00;99.90;;;;;;5047338;28;20461;-53
2021/11/13 09:43:29;;;;;;;28.73;19.17;;;6.90;99.90;;;;;;5042596;28;20434;-55
2021/11/13 09:45:57;;;;;;;29.73;18.17;;;7.00;99.90;;;;;;5048838;28;20429;-52
2021/11/13 09:48:23;;;;;;;27.40;18.90;;;6.90;99.90;;;;;;5046324;28;20480;-55
2021/11/13 09:50:50;;;;;;;28.73;17.90;;;7.00;99.90;;;;;;5046330;28;20433;-54
2021/11/13 09:53:19;;;;;;;29.30;18.57;;;7.00;99.90;;;;;;5048571;28;20970;-52
2021/11/13 09:55:46;;;;;;;25.63;17.77;;;7.00;99.90;;;;;;5045368;28;20430;-55
2021/11/13 09:58:11;;;;;;;28.80;18.17;;;7.00;99.90;;;;;;5045861;28;20540;-55
2021/11/13 10:00:41;;;;;;;38.50;20.07;;;7.10;99.90;;;;;;5044093;28;20537;-54
2021/11/13 10:03:07;;;;;;;30.30;19.00;;;7.10;99.90;;;;;;5047538;28;20282;-54
2021/11/13 10:05:33;;;;;;;29.47;19.00;;;7.20;99.90;;;;;;5046194;28;20888;-56
2021/11/13 10:07:59;;;;;;;28.33;18.43;;;7.30;99.90;;;;;;5046818;28;20441;-53
2021/11/13 10:10:38;;;;;;;30.70;19.00;;;7.20;99.90;;;;;;5043071;28;20450;-56
2021/11/13 10:13:21;;;;;;;29.30;18.27;;;7.20;99.90;;;;;;5046782;28;20237;-52
2021/11/13 10:15:51;;;;;;;27.47;18.63;;;7.30;99.90;;;;;;5043599;28;20496;-53
2021/11/13 10:18:23;;;;;;;32.97;22.60;;;7.50;99.90;;;;;;5049707;28;20446;-53
2021/11/13 10:20:58;;;;;;;27.80;19.40;;;7.50;99.90;;;;;;5046498;28;20471;-55
2021/11/13 10:23:26;;;;;;;31.87;21.20;;;7.50;99.90;;;;;;5042565;28;20529;-55
2021/11/13 10:26:13;;;;;;;25.93;18.13;;;7.70;99.90;;;;;;5044513;28;20457;-54
2021/11/13 10:28:57;;;;;;;24.33;17.77;;;7.90;99.90;;;;;;5045135;28;20991;-55
2021/11/13 10:31:32;;;;;;;27.10;18.20;;;7.90;99.90;;;;;;5043148;28;20468;-52
2021/11/13 10:34:01;;;;;;;26.03;18.37;;;8.00;99.90;;;;;;5047502;28;20430;-54
2021/11/13 10:36:37;;;;;;;25.33;18.07;;;8.10;99.90;;;;;;5044681;28;20920;-52
2021/11/13 10:39:07;;;;;;;31.63;17.47;;;8.10;99.90;;;;;;5041795;28;20422;-53
2021/11/13 10:41:48;;;;;;;24.23;17.03;;;8.10;99.90;;;;;;5042477;28;20470;-54
2021/11/13 10:44:16;;;;;;;26.30;17.90;;;8.10;99.90;;;;;;5041371;28;20449;-56
2021/11/13 10:46:44;;;;;;;28.47;20.00;;;8.00;99.90;;;;;;5044245;28;20446;-54
2021/11/13 10:49:10;;;;;;;24.10;18.10;;;8.00;99.90;;;;;;5044817;28;20470;-54
2021/11/13 10:51:48;;;;;;;25.57;16.80;;;8.20;99.90;;;;;;5044681;28;20785;-56
2021/11/13 10:54:15;;;;;;;26.77;17.53;;;8.30;99.90;;;;;;5047032;28;20433;-54
2021/11/13 10:56:50;;;;;;;23.77;17.83;;;8.20;99.90;;;;;;5049309;28;20791;-53
2021/11/13 10:59:16;;;;;;;31.23;18.83;;;8.20;99.90;;;;;;5045595;28;20789;-52
2021/11/13 11:01:45;;;;;;;24.50;17.17;;;8.10;99.90;;;;;;5044183;28;20557;-55
2021/11/13 11:04:15;;;;;;;23.50;17.77;;;8.20;99.90;;;;;;5044095;28;20798;-54
2021/11/13 11:06:46;;;;;;;22.47;15.90;;;8.20;99.90;;;;;;5042315;28;20453;-54
2021/11/13 11:09:16;;;;;;;21.57;16.53;;;8.20;99.90;;;;;;5039168;28;20517;-52
2021/11/13 11:11:42;;;;;;;22.00;16.37;;;8.30;99.90;;;;;;5041707;28;20426;-56
2021/11/13 11:14:10;;;;;;;21.70;15.90;;;8.20;99.90;;;;;;5043857;28;20517;-54
2021/11/13 11:16:41;;;;;;;23.67;17.13;;;8.20;99.90;;;;;;5047479;28;20192;-53
2021/11/13 11:19:08;;;;;;;24.47;17.00;;;8.10;99.90;;;;;;5045596;28;20910;-54
2021/11/13 11:21:44;;;;;;;22.10;17.23;;;8.10;99.90;;;;;;5041546;28;20442;-51
2021/11/13 11:24:40;;;;;;;24.03;16.30;;;8.30;99.90;;;;;;5045832;28;20417;-54
2021/11/13 11:27:19;;;;;;;19.27;16.00;;;8.10;99.90;;;;;;5044648;28;20450;-52
2021/11/13 11:29:49;;;;;;;24.23;16.87;;;8.20;99.90;;;;;;5043160;28;20551;-54
2021/11/13 11:32:20;;;;;;;22.20;15.53;;;8.20;99.90;;;;;;5047236;28;20887;-51
2021/11/13 11:34:47;;;;;;;25.30;16.27;;;8.20;99.90;;;;;;5042047;28;20443;-55
2021/11/13 11:37:15;;;;;;;20.87;15.47;;;8.30;99.90;;;;;;5043718;28;20803;-55
2021/11/13 11:39:43;;;;;;;21.43;15.53;;;8.30;99.90;;;;;;5046278;28;20529;-55
2021/11/13 11:42:10;;;;;;;24.33;15.97;;;8.30;99.90;;;;;;5041845;28;20451;-54
2021/11/13 11:44:37;;;;;;;22.87;15.70;;;8.40;99.90;;;;;;5046924;28;20430;-56
2021/11/13 11:47:11;;;;;;;22.37;14.30;;;8.40;99.90;;;;;;5049213;28;20422;-55
2021/11/13 11:49:57;;;;;;;24.00;14.73;;;8.30;99.90;;;;;;5042571;28;20481;-51
2021/11/13 11:52:26;;;;;;;20.17;14.43;;;8.20;99.90;;;;;;5041860;28;20996;-51
2021/11/13 11:54:54;;;;;;;19.30;14.83;;;8.20;99.90;;;;;;5043000;28;20414;-54
2021/11/13 11:57:26;;;;;;;21.70;15.37;;;8.20;99.90;;;;;;5044282;28;20425;-52
2021/11/13 11:59:57;;;;;;;22.47;14.77;;;8.30;99.90;;;;;;5041431;28;20530;-52
2021/11/13 12:02:23;;;;;;;21.50;14.13;;;8.30;99.90;;;;;;5045529;28;20440;-54
2021/11/13 12:04:50;;;;;;;17.87;14.00;;;8.30;99.90;;;;;;5042557;28;20526;-53
2021/11/13 12:07:29;;;;;;;18.53;14.77;;;8.40;99.90;;;;;;5043577;28;20440;-55
2021/11/13 12:10:14;;;;;;;25.77;17.30;;;8.50;99.90;;;;;;5047402;28;20469;-53
2021/11/13 12:12:58;;;;;;;19.30;14.67;;;8.50;99.90;;;;;;5044177;28;20429;-56
2021/11/13 12:15:25;;;;;;;18.70;13.83;;;8.60;99.90;;;;;;5048777;28;20435;-53
2021/11/13 12:17:55;;;;;;;33.33;15.47;;;8.70;99.90;;;;;;5048405;28;20406;-53
2021/11/13 12:20:30;;;;;;;25.33;14.07;;;8.80;99.90;;;;;;5041213;28;20437;-54
2021/11/13 12:23:02;;;;;;;18.40;14.40;;;8.90;99.90;;;;;;5043178;28;20805;-54
2021/11/13 12:25:33;;;;;;;20.47;14.03;;;8.90;99.90;;;;;;5045878;28;20556;-55
2021/11/13 12:28:18;;;;;;;19.10;14.13;;;8.90;99.90;;;;;;5044371;28;20414;-56
2021/11/13 12:30:48;;;;;;;21.50;14.70;;;9.00;99.90;;;;;;5040524;28;20439;-55
2021/11/13 12:33:29;;;;;;;20.73;14.20;;;9.10;99.90;;;;;;5047777;28;20438;-53
2021/11/13 12:35:57;;;;;;;19.80;14.87;;;9.10;99.90;;;;;;5044644;28;20795;-54
2021/11/13 12:38:46;;;;;;;23.47;15.53;;;9.20;99.90;;;;;;5041900;28;20430;-56